createdAt,value
2023-01-06T00:01:11.885Z,12.80
2023-01-06T00:03:39.402Z,13.03
2023-01-06T00:06:08.293Z,14.33
2023-01-06T00:08:35.836Z,12.23
2023-01-06T00:11:11.415Z,12.23
2023-01-06T00:13:39.142Z,11.60
2023-01-06T00:16:09.889Z,12.10
2023-01-06T00:18:36.994Z,10.97
2023-01-06T00:21:05.008Z,13.20
2023-01-06T00:23:32.895Z,10.73
2023-01-06T00:26:00.276Z,12.17
2023-01-06T00:28:27.297Z,11.20
2023-01-06T00:30:54.564Z,12.37
2023-01-06T00:33:21.741Z,10.87
2023-01-06T00:35:48.703Z,11.80
2023-01-06T00:38:15.706Z,14.13
2023-01-06T00:40:42.724Z,15.57
2023-01-06T00:43:09.729Z,12.60
2023-01-06T00:45:36.714Z,11.47
2023-01-06T00:48:03.899Z,12.60
2023-01-06T00:50:31.146Z,10.00
2023-01-06T00:52:58.126Z,12.37
2023-01-06T00:55:25.127Z,12.13
2023-01-06T00:57:53.130Z,11.80
2023-01-06T01:00:20.312Z,12.13
2023-01-06T01:02:47.360Z,13.00
2023-01-06T01:05:14.742Z,10.73
2023-01-06T01:07:42.764Z,9.53
2023-01-06T01:10:10.267Z,10.37
2023-01-06T01:12:37.303Z,10.73
2023-01-06T01:15:05.392Z,10.47
2023-01-06T01:17:32.894Z,10.33
2023-01-06T01:20:01.156Z,11.27
2023-01-06T01:22:32.094Z,11.00
2023-01-06T01:25:01.104Z,10.67
2023-01-06T01:27:32.164Z,11.33
2023-01-06T01:29:59.101Z,13.10
2023-01-06T01:32:26.273Z,12.93
2023-01-06T01:34:53.221Z,13.43
2023-01-06T01:37:20.191Z,17.73
2023-01-06T01:39:49.225Z,12.17
2023-01-06T01:42:18.651Z,11.47
2023-01-06T01:45:02.723Z,15.83
2023-01-06T01:47:45.702Z,13.20
2023-01-06T01:50:12.668Z,18.90
2023-01-06T01:52:43.048Z,13.40
2023-01-06T01:55:12.358Z,12.03
2023-01-06T01:57:55.094Z,13.87
2023-01-06T02:00:22.157Z,13.13
2023-01-06T02:02:49.699Z,11.33
2023-01-06T02:05:20.506Z,9.67
2023-01-06T02:07:48.172Z,10.33
2023-01-06T02:10:18.350Z,10.40
2023-01-06T02:12:49.301Z,8.60
2023-01-06T02:15:36.462Z,11.30
2023-01-06T02:18:21.784Z,13.83
2023-01-06T02:21:09.828Z,12.57
2023-01-06T02:23:58.743Z,12.73
2023-01-06T02:26:55.938Z,10.53
2023-01-06T02:29:31.959Z,12.15
2023-01-06T02:32:24.838Z,11.30
2023-01-06T02:35:07.882Z,15.17
2023-01-06T02:37:50.238Z,12.27
2023-01-06T02:40:40.989Z,12.23
2023-01-06T02:43:37.106Z,10.70
2023-01-06T02:46:10.293Z,9.10
2023-01-06T02:48:45.028Z,11.80
2023-01-06T02:51:30.350Z,11.70
2023-01-06T02:54:18.051Z,12.07
2023-01-06T02:56:55.114Z,11.23
2023-01-06T02:59:29.956Z,11.60
2023-01-06T03:01:59.811Z,10.33
2023-01-06T03:04:33.342Z,11.47
2023-01-06T03:07:03.570Z,10.50
2023-01-06T03:09:35.175Z,9.70
2023-01-06T03:12:32.376Z,9.10
2023-01-06T03:15:00.051Z,10.17
2023-01-06T03:17:29.810Z,8.23
2023-01-06T03:19:57.322Z,10.43
2023-01-06T03:22:25.498Z,10.23
2023-01-06T03:24:53.022Z,10.30
2023-01-06T03:27:26.127Z,8.80
2023-01-06T03:29:54.435Z,9.43
2023-01-06T03:32:28.797Z,9.70
2023-01-06T03:35:28.330Z,11.20
2023-01-06T03:38:01.724Z,10.90
2023-01-06T03:40:44.033Z,12.03
2023-01-06T03:43:25.096Z,9.83
2023-01-06T03:46:12.450Z,9.63
2023-01-06T03:48:57.235Z,10.93
2023-01-06T03:51:48.774Z,9.83
2023-01-06T03:54:20.283Z,8.97
2023-01-06T03:56:51.176Z,10.43
2023-01-06T03:59:24.914Z,11.07
2023-01-06T04:01:53.277Z,8.87
2023-01-06T04:04:21.743Z,11.73
2023-01-06T04:06:48.991Z,9.37
2023-01-06T04:09:16.812Z,10.00
2023-01-06T04:12:04.084Z,9.90
2023-01-06T04:14:34.140Z,8.37
2023-01-06T04:17:02.476Z,11.67
2023-01-06T04:19:29.679Z,11.30
2023-01-06T04:21:57.549Z,10.03
2023-01-06T04:24:28.596Z,10.30
2023-01-06T04:26:56.313Z,11.17
2023-01-06T04:29:23.341Z,9.90
2023-01-06T04:31:53.105Z,8.57
2023-01-06T04:34:20.656Z,10.97
2023-01-06T04:36:48.319Z,10.37
2023-01-06T04:39:15.273Z,9.97
2023-01-06T04:41:42.218Z,10.30
2023-01-06T04:44:09.186Z,12.27
2023-01-06T04:46:36.192Z,10.67
2023-01-06T04:49:03.543Z,9.80
2023-01-06T04:51:30.551Z,11.47
2023-01-06T04:53:57.584Z,11.97
2023-01-06T04:56:26.723Z,11.53
2023-01-06T04:58:55.768Z,11.83
2023-01-06T05:01:23.882Z,11.20
2023-01-06T05:03:51.356Z,10.97
2023-01-06T05:06:19.465Z,13.37
2023-01-06T05:08:47.148Z,10.07
2023-01-06T05:11:18.229Z,10.07
2023-01-06T05:13:45.650Z,10.30
2023-01-06T05:16:24.589Z,10.47
2023-01-06T05:18:52.032Z,9.43
2023-01-06T05:21:19.091Z,10.07
2023-01-06T05:23:46.092Z,10.07
2023-01-06T05:26:22.279Z,11.80
2023-01-06T05:31:16.715Z,12.60
2023-01-06T05:33:43.933Z,10.20
2023-01-06T05:36:13.510Z,12.43
2023-01-06T05:38:40.870Z,12.73
2023-01-06T05:41:08.255Z,12.30
2023-01-06T05:43:36.691Z,12.07
2023-01-06T05:46:08.758Z,10.90
2023-01-06T05:48:36.504Z,12.87
2023-01-06T05:51:05.767Z,11.43
2023-01-06T05:53:38.025Z,10.70
2023-01-06T05:56:06.373Z,13.70
2023-01-06T05:58:34.257Z,11.03
2023-01-06T06:01:02.469Z,13.67
2023-01-06T06:03:29.779Z,12.70
2023-01-06T06:06:03.356Z,12.77
2023-01-06T06:08:30.415Z,15.80
2023-01-06T06:11:05.851Z,12.13
2023-01-06T06:13:33.323Z,11.50
2023-01-06T06:16:11.534Z,11.67
2023-01-06T06:18:44.612Z,13.87
2023-01-06T06:21:17.031Z,11.63
2023-01-06T06:23:44.444Z,13.07
2023-01-06T06:26:12.002Z,14.03
2023-01-06T06:28:40.340Z,12.73
2023-01-06T06:31:09.936Z,13.10
2023-01-06T06:33:37.496Z,12.67
2023-01-06T06:36:05.926Z,12.60
2023-01-06T06:38:32.895Z,13.70
2023-01-06T06:40:59.874Z,14.27
2023-01-06T06:43:26.963Z,14.90
2023-01-06T06:45:54.041Z,11.47
2023-01-06T06:48:21.089Z,13.57
2023-01-06T06:50:56.679Z,13.03
2023-01-06T06:53:23.739Z,13.02
2023-01-06T06:55:50.753Z,14.80
2023-01-06T06:58:17.923Z,13.00
2023-01-06T07:00:44.980Z,12.90
2023-01-06T07:03:11.960Z,12.90
2023-01-06T07:05:39.333Z,13.87
2023-01-06T07:08:06.304Z,10.47
2023-01-06T07:10:33.965Z,11.90
2023-01-06T07:13:01.029Z,12.53
2023-01-06T07:15:29.345Z,15.50
2023-01-06T07:18:01.261Z,19.47
2023-01-06T07:20:29.873Z,13.47
2023-01-06T07:22:56.882Z,14.37
2023-01-06T07:25:24.360Z,13.77
2023-01-06T07:27:55.594Z,17.30
2023-01-06T07:30:24.462Z,14.33
2023-01-06T07:32:51.592Z,15.43
2023-01-06T07:35:19.010Z,13.23
2023-01-06T07:37:46.079Z,13.27
2023-01-06T07:40:14.058Z,14.93
2023-01-06T07:42:41.205Z,11.73
2023-01-06T07:45:08.851Z,13.60
2023-01-06T07:47:36.281Z,14.17
2023-01-06T07:50:04.848Z,14.33
2023-01-06T07:52:32.221Z,11.83
2023-01-06T07:55:00.265Z,12.93
2023-01-06T07:57:28.092Z,15.53
2023-01-06T07:59:55.261Z,13.80
2023-01-06T08:02:23.229Z,15.03
2023-01-06T08:04:50.444Z,14.17
2023-01-06T08:07:17.601Z,15.50
2023-01-06T08:09:45.031Z,14.50
2023-01-06T08:12:12.412Z,15.10
2023-01-06T08:14:39.597Z,15.70
2023-01-06T08:17:07.567Z,13.83
2023-01-06T08:19:34.724Z,17.37
2023-01-06T08:22:02.174Z,15.40
2023-01-06T08:24:31.953Z,16.70
2023-01-06T08:26:59.684Z,17.50
2023-01-06T08:29:26.744Z,16.70
2023-01-06T08:32:02.236Z,15.53
2023-01-06T08:34:36.448Z,18.10
2023-01-06T08:37:03.872Z,16.50
2023-01-06T08:39:31.111Z,16.97
2023-01-06T08:41:58.483Z,13.33
2023-01-06T08:44:25.583Z,14.80
2023-01-06T08:46:52.674Z,17.23
2023-01-06T08:49:19.721Z,17.27
2023-01-06T08:51:46.850Z,15.43
2023-01-06T08:54:14.865Z,15.97
2023-01-06T08:56:43.682Z,16.63
2023-01-06T08:59:14.746Z,13.40
2023-01-06T09:01:43.154Z,13.57
2023-01-06T09:04:11.659Z,14.93
2023-01-06T09:06:39.841Z,14.87
2023-01-06T09:09:07.906Z,14.27
2023-01-06T09:11:35.577Z,17.10
2023-01-06T09:14:02.695Z,14.97
2023-01-06T09:16:29.835Z,15.00
2023-01-06T09:18:56.929Z,17.17
2023-01-06T09:21:24.387Z,15.30
2023-01-06T09:23:51.832Z,15.87
2023-01-06T09:26:20.238Z,17.93
2023-01-06T09:28:47.684Z,18.57
2023-01-06T09:31:14.787Z,14.73
2023-01-06T09:33:41.865Z,14.40
2023-01-06T09:36:09.040Z,17.20
2023-01-06T09:38:36.172Z,12.17
2023-01-06T09:41:24.216Z,14.87
2023-01-06T09:44:15.963Z,10.90
2023-01-06T09:46:47.073Z,13.73
2023-01-06T09:49:25.945Z,13.00
2023-01-06T09:52:07.592Z,14.73
2023-01-06T09:54:41.313Z,13.53
2023-01-06T09:57:22.150Z,13.97
2023-01-06T09:59:56.105Z,14.57
2023-01-06T10:02:29.748Z,13.17
2023-01-06T10:04:56.774Z,13.80
2023-01-06T10:07:51.949Z,13.63
2023-01-06T10:10:49.332Z,16.03
2023-01-06T10:16:10.145Z,16.60
2023-01-06T10:18:37.098Z,13.37
2023-01-06T10:21:15.059Z,15.40
2023-01-06T10:23:51.002Z,16.30
2023-01-06T10:26:31.425Z,17.67
2023-01-06T10:29:35.802Z,19.73
2023-01-06T10:32:05.137Z,15.03
2023-01-06T10:34:34.423Z,15.07
2023-01-06T10:37:10.373Z,16.80
2023-01-06T10:39:39.853Z,13.88
2023-01-06T10:42:46.778Z,14.77
2023-01-06T10:45:14.678Z,18.03
2023-01-06T10:47:43.865Z,15.10
2023-01-06T10:50:15.981Z,16.03
2023-01-06T10:52:44.390Z,16.77
2023-01-06T10:55:26.404Z,16.03
2023-01-06T10:57:57.763Z,15.77
2023-01-06T11:00:25.245Z,16.63
2023-01-06T11:02:57.727Z,14.57
2023-01-06T11:05:34.853Z,14.30
2023-01-06T11:08:01.844Z,14.20
2023-01-06T11:10:28.827Z,14.27
2023-01-06T11:12:58.547Z,14.20
2023-01-06T11:15:35.620Z,14.00
2023-01-06T11:18:04.846Z,15.90
2023-01-06T11:20:34.743Z,13.50
2023-01-06T11:23:21.660Z,14.53
2023-01-06T11:28:49.571Z,15.33
2023-01-06T11:31:28.488Z,15.27
2023-01-06T11:33:58.286Z,14.23
2023-01-06T11:36:29.232Z,13.80
2023-01-06T11:38:59.432Z,14.90
2023-01-06T11:41:41.433Z,15.60
2023-01-06T11:44:44.232Z,14.97
2023-01-06T11:47:21.685Z,14.00
2023-01-06T11:49:54.696Z,14.03
2023-01-06T11:52:24.787Z,13.97
2023-01-06T11:55:02.351Z,16.63
2023-01-06T11:57:37.236Z,17.93
2023-01-06T12:00:43.746Z,16.55
2023-01-06T12:03:10.856Z,17.13
2023-01-06T12:05:39.190Z,17.73
2023-01-06T12:08:19.017Z,16.63
2023-01-06T12:10:51.683Z,16.27
2023-01-06T12:13:18.999Z,16.13
2023-01-06T12:15:52.924Z,16.60
2023-01-06T12:18:28.346Z,18.23
2023-01-06T12:20:56.982Z,19.03
2023-01-06T12:23:32.018Z,15.13
2023-01-06T12:26:02.712Z,16.03
2023-01-06T12:28:33.164Z,17.50
2023-01-06T12:31:25.005Z,17.53
2023-01-06T12:34:11.716Z,19.87
2023-01-06T12:36:54.060Z,21.27
2023-01-06T12:39:36.161Z,17.10
2023-01-06T12:42:34.895Z,19.70
2023-01-06T12:45:16.404Z,19.57
2023-01-06T12:47:46.353Z,21.13
2023-01-06T12:50:35.183Z,17.70
2023-01-06T12:53:20.809Z,19.47
2023-01-06T12:56:17.675Z,19.20
2023-01-06T12:59:16.767Z,16.63
2023-01-06T13:01:56.469Z,18.13
2023-01-06T13:04:39.828Z,17.67
2023-01-06T13:07:06.902Z,17.90
2023-01-06T13:10:22.147Z,18.43
2023-01-06T13:13:30.756Z,17.37
2023-01-06T13:16:05.580Z,19.23
2023-01-06T13:18:38.473Z,19.13
2023-01-06T13:21:11.366Z,17.30
2023-01-06T13:24:03.107Z,16.63
2023-01-06T13:26:36.139Z,18.87
2023-01-06T13:29:40.668Z,16.83
2023-01-06T13:32:19.761Z,16.50
2023-01-06T13:35:20.936Z,17.63
2023-01-06T13:38:10.631Z,17.77
2023-01-06T13:40:40.507Z,17.37
2023-01-06T13:43:26.484Z,15.53
2023-01-06T13:45:59.099Z,16.25
2023-01-06T13:48:33.673Z,17.43
2023-01-06T13:51:04.945Z,15.70
2023-01-06T13:53:40.600Z,18.60
2023-01-06T13:56:13.699Z,16.80
2023-01-06T13:58:41.677Z,19.57
2023-01-06T14:01:11.368Z,19.07
2023-01-06T14:03:43.260Z,16.73
2023-01-06T14:06:40.065Z,17.93
2023-01-06T14:09:18.267Z,19.73
2023-01-06T14:11:45.938Z,19.17
2023-01-06T14:14:30.251Z,18.17
2023-01-06T14:16:58.120Z,18.07
2023-01-06T14:19:31.526Z,18.30
2023-01-06T14:22:20.412Z,19.87
2023-01-06T14:24:53.964Z,17.90
2023-01-06T14:27:45.608Z,19.40
2023-01-06T14:30:40.734Z,19.70
2023-01-06T14:33:07.662Z,20.17
2023-01-06T14:35:44.148Z,18.43
2023-01-06T14:38:20.543Z,16.43
2023-01-06T14:43:44.661Z,16.57
2023-01-06T14:46:22.296Z,20.33
2023-01-06T14:48:59.262Z,18.50
2023-01-06T14:51:27.060Z,17.40
2023-01-06T14:54:04.187Z,19.50
2023-01-06T14:56:33.308Z,17.07
2023-01-06T14:59:12.348Z,22.03
2023-01-06T15:01:42.798Z,20.50
2023-01-06T15:04:27.510Z,19.03
2023-01-06T15:07:03.701Z,19.83
2023-01-06T15:11:57.755Z,16.03
2023-01-06T15:14:33.149Z,18.70
2023-01-06T15:17:06.805Z,16.52
2023-01-06T15:19:35.369Z,19.03
2023-01-06T15:22:07.938Z,17.27
2023-01-06T15:24:38.491Z,18.17
2023-01-06T15:27:08.522Z,17.93
2023-01-06T15:29:36.025Z,18.43
2023-01-06T15:32:04.600Z,18.90
2023-01-06T15:34:34.584Z,20.00
2023-01-06T15:37:04.593Z,18.07
2023-01-06T15:39:33.523Z,20.50
2023-01-06T15:42:02.493Z,21.10
2023-01-06T15:44:32.443Z,19.13
2023-01-06T15:47:16.271Z,20.87
2023-01-06T15:49:56.740Z,20.03
2023-01-06T15:52:37.009Z,19.10
2023-01-06T15:55:07.388Z,19.13
2023-01-06T15:57:40.092Z,20.63
2023-01-06T16:00:19.344Z,20.27
2023-01-06T16:02:49.259Z,22.10
2023-01-06T16:05:35.747Z,21.37
2023-01-06T16:08:05.182Z,19.38
2023-01-06T16:10:37.842Z,20.33
2023-01-06T16:13:15.876Z,25.60
2023-01-06T16:15:58.804Z,22.87
2023-01-06T16:18:34.633Z,19.43
2023-01-06T16:21:22.328Z,19.80
2023-01-06T16:23:53.406Z,21.47
2023-01-06T16:26:23.480Z,23.87
2023-01-06T16:28:59.806Z,23.33
2023-01-06T16:31:37.420Z,26.53
2023-01-06T16:34:22.564Z,23.30
2023-01-06T16:36:50.534Z,23.30
2023-01-06T16:39:17.666Z,22.37
2023-01-06T16:42:38.664Z,26.17
2023-01-06T16:45:35.427Z,27.27
2023-01-06T16:48:02.497Z,21.92
2023-01-06T16:50:55.077Z,21.73
2023-01-06T16:53:23.350Z,22.73
2023-01-06T16:55:55.738Z,20.57
2023-01-06T16:58:26.563Z,23.30
2023-01-06T17:00:56.577Z,24.33
2023-01-06T17:03:25.985Z,21.17
2023-01-06T17:05:53.631Z,22.50
2023-01-06T17:08:30.956Z,20.20
2023-01-06T17:11:01.654Z,21.70
2023-01-06T17:13:35.655Z,19.00
2023-01-06T17:16:16.736Z,20.90
2023-01-06T17:19:07.001Z,19.50
2023-01-06T17:21:39.612Z,18.50
2023-01-06T17:24:09.368Z,17.30
2023-01-06T17:26:36.908Z,16.77
2023-01-06T17:29:20.213Z,18.60
2023-01-06T17:31:57.175Z,19.37
2023-01-06T17:34:31.915Z,17.00
2023-01-06T17:37:10.911Z,17.57
2023-01-06T17:39:40.716Z,17.77
2023-01-06T17:42:07.646Z,20.20
2023-01-06T17:44:37.821Z,17.40
2023-01-06T17:47:16.842Z,19.23
2023-01-06T17:49:54.939Z,17.90
2023-01-06T17:52:24.161Z,17.33
2023-01-06T17:55:15.897Z,17.27
2023-01-06T17:57:46.179Z,15.87
2023-01-06T18:00:27.830Z,18.33
2023-01-06T18:03:19.515Z,17.20
2023-01-06T18:05:49.679Z,16.77
2023-01-06T18:08:17.549Z,16.37
2023-01-06T18:11:10.451Z,21.37
2023-01-06T18:13:41.956Z,18.97
2023-01-06T18:16:27.380Z,19.23
2023-01-06T18:19:04.739Z,16.77
2023-01-06T18:21:36.916Z,21.53
2023-01-06T18:24:32.027Z,19.93
2023-01-06T18:27:01.404Z,19.63
2023-01-06T18:29:36.887Z,18.33
2023-01-06T18:32:31.349Z,19.48
2023-01-06T18:35:04.310Z,17.10
2023-01-06T18:37:34.595Z,16.37
2023-01-06T18:40:08.161Z,20.43
2023-01-06T18:42:37.672Z,17.37
2023-01-06T18:45:17.005Z,17.03
2023-01-06T18:47:46.245Z,16.80
2023-01-06T18:50:41.736Z,13.27
2023-01-06T18:53:15.078Z,14.83
2023-01-06T18:55:43.197Z,17.73
2023-01-06T18:58:39.058Z,16.83
2023-01-06T19:01:17.985Z,15.13
2023-01-06T19:04:04.149Z,15.83
2023-01-06T19:06:38.501Z,15.60
2023-01-06T19:09:27.398Z,14.17
2023-01-06T19:12:00.322Z,14.90
2023-01-06T19:14:30.280Z,14.97
2023-01-06T19:16:58.855Z,13.13
2023-01-06T19:19:25.820Z,17.63
2023-01-06T19:21:57.260Z,16.07
2023-01-06T19:24:27.325Z,15.87
2023-01-06T19:26:56.568Z,16.87
2023-01-06T19:29:28.680Z,15.83
2023-01-06T19:31:59.074Z,13.93
2023-01-06T19:34:26.563Z,13.47
2023-01-06T19:36:57.055Z,15.20
2023-01-06T19:39:40.572Z,12.90
2023-01-06T19:42:16.488Z,12.17
2023-01-06T19:44:43.764Z,15.25
2023-01-06T19:47:21.616Z,13.10
2023-01-06T19:49:56.096Z,14.40
2023-01-06T19:52:41.334Z,12.03
2023-01-06T19:55:15.298Z,15.13
2023-01-06T19:57:47.750Z,15.07
2023-01-06T20:00:21.093Z,15.17
2023-01-06T20:02:51.066Z,15.17
2023-01-06T20:05:19.083Z,13.70
2023-01-06T20:07:46.130Z,13.53
2023-01-06T20:10:13.157Z,14.87
2023-01-06T20:12:40.180Z,13.50
2023-01-06T20:15:07.772Z,14.07
2023-01-06T20:17:35.092Z,16.57
2023-01-06T20:20:02.074Z,13.43
2023-01-06T20:22:30.351Z,13.03
2023-01-06T20:24:57.424Z,13.57
2023-01-06T20:27:24.389Z,14.57
2023-01-06T20:29:52.889Z,13.50
2023-01-06T20:32:19.945Z,15.37
2023-01-06T20:34:47.027Z,12.77
2023-01-06T20:37:13.972Z,15.83
2023-01-06T20:39:40.962Z,11.33
2023-01-06T20:42:08.829Z,13.27
2023-01-06T20:44:35.903Z,13.93
2023-01-06T20:47:02.895Z,14.03
2023-01-06T20:49:29.947Z,12.40
2023-01-06T20:51:56.948Z,13.10
2023-01-06T20:54:23.996Z,12.27
2023-01-06T20:56:51.021Z,11.67
2023-01-06T20:59:17.992Z,15.40
2023-01-06T21:01:45.039Z,14.47
2023-01-06T21:04:12.133Z,12.00
2023-01-06T21:06:39.091Z,14.83
2023-01-06T21:09:06.126Z,14.03
2023-01-06T21:11:33.309Z,14.70
2023-01-06T21:14:00.337Z,14.53
2023-01-06T21:16:27.338Z,12.70
2023-01-06T21:18:54.350Z,13.70
2023-01-06T21:21:21.335Z,14.57
2023-01-06T21:23:48.299Z,13.17
2023-01-06T21:26:15.234Z,14.30
2023-01-06T21:28:42.219Z,15.13
2023-01-06T21:31:09.292Z,13.70
2023-01-06T21:33:36.283Z,13.73
2023-01-06T21:36:03.946Z,15.30
2023-01-06T21:38:33.058Z,13.17
2023-01-06T21:41:22.669Z,15.47
2023-01-06T21:43:49.843Z,12.93
2023-01-06T21:46:17.050Z,14.50
2023-01-06T21:48:44.218Z,16.50
2023-01-06T21:51:11.415Z,16.07
2023-01-06T21:53:39.095Z,14.77
2023-01-06T21:56:08.229Z,14.53
2023-01-06T21:58:35.667Z,16.63
2023-01-06T22:01:02.784Z,15.53
2023-01-06T22:03:29.873Z,18.17
2023-01-06T22:05:57.844Z,16.70
2023-01-06T22:08:24.948Z,15.43
2023-01-06T22:10:52.007Z,16.03
2023-01-06T22:13:21.925Z,17.70
2023-01-06T22:15:50.333Z,17.00
2023-01-06T22:18:18.207Z,16.70
2023-01-06T22:20:45.827Z,17.90
2023-01-06T22:23:18.341Z,18.33
2023-01-06T22:25:45.436Z,18.93
2023-01-06T22:28:12.511Z,15.43
2023-01-06T22:30:39.679Z,15.40
2023-01-06T22:33:06.712Z,18.00
2023-01-06T22:35:33.678Z,17.13
2023-01-06T22:38:00.869Z,17.77
2023-01-06T22:40:28.234Z,17.33
2023-01-06T22:42:55.351Z,18.43
2023-01-06T22:45:22.414Z,15.83
2023-01-06T22:47:49.426Z,17.77
2023-01-06T22:50:16.518Z,16.37
2023-01-06T22:52:43.474Z,18.00
2023-01-06T22:55:10.495Z,17.40
2023-01-06T22:57:37.560Z,17.30
2023-01-06T23:00:11.621Z,15.03
2023-01-06T23:02:38.925Z,21.20
2023-01-06T23:05:06.308Z,18.30
2023-01-06T23:07:40.695Z,17.80
2023-01-06T23:10:09.868Z,18.47
2023-01-06T23:12:38.763Z,19.80
2023-01-06T23:15:07.138Z,20.80
2023-01-06T23:17:36.614Z,18.17
2023-01-06T23:20:04.650Z,18.20
2023-01-06T23:22:31.715Z,18.27
2023-01-06T23:24:58.767Z,21.80
2023-01-06T23:27:25.758Z,18.83
2023-01-06T23:29:52.682Z,20.00
2023-01-06T23:32:20.376Z,18.67
2023-01-06T23:34:47.830Z,16.50
2023-01-06T23:37:14.817Z,15.63
2023-01-06T23:39:41.752Z,17.70
2023-01-06T23:42:08.723Z,18.07
2023-01-06T23:44:35.656Z,15.73
2023-01-06T23:47:02.632Z,19.03
2023-01-06T23:49:29.668Z,21.67
2023-01-06T23:51:56.787Z,17.33
2023-01-06T23:54:23.869Z,17.63
2023-01-06T23:56:50.806Z,20.27
2023-01-06T23:59:17.766Z,18.40
